createdAt,value
2023-05-11T00:01:59.626Z,1.48
2023-05-11T00:04:26.847Z,1.10
2023-05-11T00:06:55.673Z,1.20
2023-05-11T00:09:22.612Z,1.25
2023-05-11T00:11:49.601Z,1.92
2023-05-11T00:14:16.439Z,1.17
2023-05-11T00:16:43.356Z,1.40
2023-05-11T00:19:10.242Z,1.48
2023-05-11T00:21:37.426Z,1.20
2023-05-11T00:24:04.343Z,1.08
2023-05-11T00:26:31.195Z,1.25
2023-05-11T00:28:58.071Z,1.30
2023-05-11T00:31:26.504Z,1.13
2023-05-11T00:33:54.930Z,0.90
2023-05-11T00:36:22.519Z,1.00
2023-05-11T00:38:50.226Z,1.05
2023-05-11T00:41:17.174Z,1.35
2023-05-11T00:43:44.046Z,1.17
2023-05-11T00:46:10.987Z,1.10
2023-05-11T00:48:38.168Z,1.30
2023-05-11T00:51:05.864Z,1.00
2023-05-11T00:53:33.174Z,1.50
2023-05-11T00:56:00.158Z,1.20
2023-05-11T00:58:27.463Z,1.10
2023-05-11T01:00:54.360Z,1.10
2023-05-11T01:03:21.476Z,1.00
2023-05-11T01:06:10.362Z,1.00
2023-05-11T01:08:58.838Z,1.10
2023-05-11T01:11:41.790Z,1.27
2023-05-11T01:14:30.730Z,1.10
2023-05-11T01:17:02.337Z,1.23
2023-05-11T01:19:35.042Z,1.00
2023-05-11T01:22:08.473Z,1.10
2023-05-11T01:24:50.509Z,1.10
2023-05-11T01:27:55.998Z,1.20
2023-05-11T01:30:35.803Z,1.00
2023-05-11T01:33:15.045Z,1.00
2023-05-11T01:35:48.360Z,1.00
2023-05-11T01:38:17.570Z,1.20
2023-05-11T01:40:48.878Z,1.10
2023-05-11T01:43:21.694Z,1.00
2023-05-11T01:45:51.489Z,1.35
2023-05-11T01:48:22.940Z,0.90
2023-05-11T01:50:52.044Z,1.05
2023-05-11T01:53:20.233Z,1.00
2023-05-11T01:55:48.848Z,1.00
2023-05-11T01:58:17.187Z,1.00
2023-05-11T02:00:45.365Z,1.15
2023-05-11T02:03:14.267Z,1.05
2023-05-11T02:05:43.041Z,1.10
2023-05-11T02:08:11.969Z,1.10
2023-05-11T02:10:40.689Z,0.70
2023-05-11T02:13:09.952Z,0.82
2023-05-11T02:15:42.253Z,1.10
2023-05-11T02:18:14.225Z,1.30
2023-05-11T02:20:45.261Z,1.00
2023-05-11T02:23:12.890Z,0.90
2023-05-11T02:25:41.009Z,1.70
2023-05-11T02:28:08.879Z,1.00
2023-05-11T02:30:40.970Z,0.80
2023-05-11T02:33:09.726Z,1.25
2023-05-11T02:35:42.496Z,1.10
2023-05-11T02:38:10.909Z,1.10
2023-05-11T02:40:51.570Z,1.20
2023-05-11T02:43:24.917Z,1.30
2023-05-11T02:45:56.508Z,1.20
2023-05-11T02:48:27.630Z,1.10
2023-05-11T02:50:56.881Z,1.20
2023-05-11T02:53:27.754Z,1.60
2023-05-11T02:55:58.291Z,1.50
2023-05-11T02:58:25.753Z,1.40
2023-05-11T03:00:53.347Z,1.40
2023-05-11T03:03:20.630Z,1.25
2023-05-11T03:05:47.699Z,1.45
2023-05-11T03:08:14.587Z,1.20
2023-05-11T03:10:42.583Z,1.10
2023-05-11T03:13:10.102Z,1.13
2023-05-11T03:15:39.015Z,1.17
2023-05-11T03:18:07.932Z,1.35
2023-05-11T03:20:37.893Z,1.30
2023-05-11T03:23:06.615Z,1.10
2023-05-11T03:25:33.713Z,1.27
2023-05-11T03:28:01.730Z,1.17
2023-05-11T03:30:29.819Z,1.20
2023-05-11T03:32:57.210Z,1.10
2023-05-11T03:35:27.407Z,1.27
2023-05-11T03:37:56.602Z,1.10
2023-05-11T03:40:24.629Z,1.30
2023-05-11T03:42:54.767Z,1.10
2023-05-11T03:45:22.655Z,1.27
2023-05-11T03:47:51.486Z,1.38
2023-05-11T03:50:20.045Z,1.20
2023-05-11T03:52:48.247Z,1.50
2023-05-11T03:55:16.206Z,1.55
2023-05-11T03:57:43.518Z,1.30
2023-05-11T04:00:11.745Z,1.40
2023-05-11T04:02:38.766Z,1.25
2023-05-11T04:05:09.747Z,1.73
2023-05-11T04:07:38.258Z,1.60
2023-05-11T04:10:06.517Z,1.67
2023-05-11T04:12:33.681Z,1.50
2023-05-11T04:15:00.637Z,1.63
2023-05-11T04:17:27.527Z,1.50
2023-05-11T04:19:54.372Z,1.80
2023-05-11T04:22:21.418Z,1.70
2023-05-11T04:24:48.285Z,1.60
2023-05-11T04:27:16.535Z,2.03
2023-05-11T04:29:43.661Z,1.88
2023-05-11T04:32:10.587Z,1.60
2023-05-11T04:34:37.573Z,1.73
2023-05-11T04:37:07.477Z,1.80
2023-05-11T04:39:34.905Z,1.60
2023-05-11T04:42:02.056Z,1.67
2023-05-11T04:44:29.058Z,1.60
2023-05-11T04:46:57.269Z,1.60
2023-05-11T04:49:25.053Z,1.83
2023-05-11T04:51:51.968Z,1.60
2023-05-11T04:54:18.819Z,1.80
2023-05-11T04:56:45.738Z,1.80
2023-05-11T04:59:12.727Z,1.63
2023-05-11T05:01:39.716Z,1.70
2023-05-11T05:04:06.860Z,1.73
2023-05-11T05:06:33.900Z,1.65
2023-05-11T05:09:00.950Z,1.80
2023-05-11T05:11:27.998Z,1.63
2023-05-11T05:13:55.327Z,1.63
2023-05-11T05:16:22.304Z,1.83
2023-05-11T05:18:49.249Z,1.58
2023-05-11T05:21:16.206Z,1.65
2023-05-11T05:23:43.090Z,1.55
2023-05-11T05:26:10.015Z,1.35
2023-05-11T05:28:37.115Z,1.50
2023-05-11T05:31:04.054Z,1.52
2023-05-11T05:33:30.951Z,1.55
2023-05-11T05:35:57.856Z,1.40
2023-05-11T05:38:24.760Z,1.40
2023-05-11T05:40:51.866Z,1.48
2023-05-11T05:43:18.808Z,1.38
2023-05-11T05:45:45.690Z,1.27
2023-05-11T05:48:12.522Z,1.15
2023-05-11T05:50:39.481Z,1.10
2023-05-11T05:53:07.455Z,1.33
2023-05-11T05:55:34.342Z,1.40
2023-05-11T05:58:01.302Z,1.42
2023-05-11T06:00:28.173Z,1.38
2023-05-11T06:02:55.175Z,1.60
2023-05-11T06:05:22.235Z,1.52
2023-05-11T06:07:57.934Z,1.38
2023-05-11T06:10:29.205Z,1.60
2023-05-11T06:12:56.200Z,1.40
2023-05-11T06:15:23.280Z,1.30
2023-05-11T06:17:50.198Z,1.65
2023-05-11T06:20:17.367Z,1.30
2023-05-11T06:22:44.320Z,1.52
2023-05-11T06:25:11.711Z,1.33
2023-05-11T06:27:38.562Z,1.50
2023-05-11T06:30:06.933Z,1.40
2023-05-11T06:32:34.622Z,1.25
2023-05-11T06:35:01.553Z,1.33
2023-05-11T06:37:31.401Z,1.38
2023-05-11T06:39:59.254Z,1.05
2023-05-11T06:42:26.145Z,1.40
2023-05-11T06:44:53.255Z,1.30
2023-05-11T06:47:20.258Z,1.10
2023-05-11T06:49:47.204Z,1.10
2023-05-11T06:52:14.030Z,1.00
2023-05-11T06:54:40.970Z,0.90
2023-05-11T06:57:07.852Z,1.30
2023-05-11T06:59:34.868Z,1.20
2023-05-11T07:02:01.800Z,1.08
2023-05-11T07:04:29.888Z,0.90
2023-05-11T07:06:56.879Z,1.25
2023-05-11T07:09:23.801Z,0.70
2023-05-11T07:11:52.204Z,0.90
2023-05-11T07:14:19.302Z,0.50
2023-05-11T07:16:46.691Z,0.60
2023-05-11T07:19:13.873Z,0.38
2023-05-11T07:21:40.787Z,0.55
2023-05-11T07:24:07.817Z,0.50
2023-05-11T07:26:34.694Z,0.40
2023-05-11T07:29:01.629Z,0.30
2023-05-11T07:31:30.275Z,0.52
2023-05-11T07:33:57.337Z,0.40
2023-05-11T07:36:24.212Z,0.45
2023-05-11T07:38:52.027Z,0.60
2023-05-11T07:41:19.350Z,0.52
2023-05-11T07:43:46.305Z,0.60
2023-05-11T07:46:13.325Z,0.60
2023-05-11T07:48:40.399Z,0.47
2023-05-11T07:51:07.725Z,0.50
2023-05-11T07:53:35.788Z,0.45
2023-05-11T07:56:03.881Z,0.65
2023-05-11T07:58:31.017Z,0.70
2023-05-11T08:00:58.439Z,0.40
2023-05-11T08:03:25.363Z,0.63
2023-05-11T08:05:52.548Z,0.63
2023-05-11T08:08:19.560Z,0.47
2023-05-11T08:10:46.509Z,0.55
2023-05-11T08:13:13.369Z,0.38
2023-05-11T08:15:40.292Z,0.77
2023-05-11T08:18:07.886Z,0.60
2023-05-11T08:20:34.951Z,0.70
2023-05-11T08:23:01.869Z,0.45
2023-05-11T08:25:29.209Z,0.50
2023-05-11T08:27:56.206Z,0.35
2023-05-11T08:30:23.233Z,0.50
2023-05-11T08:32:57.746Z,0.30
2023-05-11T08:35:25.826Z,0.40
2023-05-11T08:37:52.708Z,0.30
2023-05-11T08:40:21.690Z,0.75
2023-05-11T08:42:52.046Z,0.63
2023-05-11T08:45:20.878Z,0.65
2023-05-11T08:47:48.633Z,0.47
2023-05-11T08:50:16.158Z,0.52
2023-05-11T08:52:43.272Z,0.70
2023-05-11T08:55:10.719Z,0.70
2023-05-11T08:57:39.617Z,0.35
2023-05-11T09:00:08.044Z,0.80
2023-05-11T09:02:36.000Z,0.43
2023-05-11T09:05:04.532Z,0.52
2023-05-11T09:07:33.428Z,0.40
2023-05-11T09:10:00.361Z,0.55
2023-05-11T09:12:28.544Z,0.60
2023-05-11T09:15:01.883Z,0.55
2023-05-11T09:17:29.579Z,0.60
2023-05-11T09:20:07.746Z,0.50
2023-05-11T09:22:40.640Z,0.50
2023-05-11T09:25:10.066Z,0.57
2023-05-11T09:27:44.803Z,0.77
2023-05-11T09:30:22.083Z,0.90
2023-05-11T09:32:54.566Z,0.90
2023-05-11T09:35:29.822Z,1.00
2023-05-11T09:38:04.953Z,1.08
2023-05-11T09:40:37.443Z,1.17
2023-05-11T09:43:23.285Z,1.30
2023-05-11T09:45:51.817Z,1.95
2023-05-11T09:48:22.049Z,2.17
2023-05-11T09:50:49.876Z,2.20
2023-05-11T09:53:17.370Z,2.08
2023-05-11T09:55:56.049Z,1.27
2023-05-11T09:58:24.161Z,0.82
2023-05-11T10:00:56.639Z,0.80
2023-05-11T10:03:25.792Z,0.55
2023-05-11T10:05:59.039Z,0.50
2023-05-11T10:08:30.517Z,0.70
2023-05-11T10:10:57.933Z,0.73
2023-05-11T10:13:26.587Z,0.88
2023-05-11T10:15:55.439Z,0.80
2023-05-11T10:18:22.913Z,0.80
2023-05-11T10:20:50.115Z,0.70
2023-05-11T10:23:18.480Z,0.73
2023-05-11T10:25:45.708Z,1.10
2023-05-11T10:28:12.843Z,1.00
2023-05-11T10:30:41.832Z,1.10
2023-05-11T10:33:10.287Z,0.80
2023-05-11T10:35:38.620Z,1.00
2023-05-11T10:38:06.780Z,1.08
2023-05-11T10:40:43.861Z,0.70
2023-05-11T10:43:28.871Z,0.98
2023-05-11T10:46:21.718Z,0.80
2023-05-11T10:49:14.013Z,0.93
2023-05-11T10:51:57.635Z,1.13
2023-05-11T10:54:32.826Z,1.10
2023-05-11T10:57:23.339Z,1.10
2023-05-11T11:00:31.426Z,0.80
2023-05-11T11:03:08.687Z,1.13
2023-05-11T11:05:38.287Z,1.02
2023-05-11T11:08:07.501Z,0.93
2023-05-11T11:10:46.201Z,1.05
2023-05-11T11:13:15.068Z,0.75
2023-05-11T11:15:54.499Z,0.60
2023-05-11T11:18:23.342Z,0.60
2023-05-11T11:20:55.265Z,0.85
2023-05-11T11:23:40.226Z,0.73
2023-05-11T11:26:08.127Z,0.80
2023-05-11T11:29:02.620Z,0.70
2023-05-11T11:31:31.981Z,0.80
2023-05-11T11:34:19.924Z,0.68
2023-05-11T11:36:55.900Z,0.90
2023-05-11T11:39:25.530Z,1.00
2023-05-11T11:42:05.761Z,0.75
2023-05-11T11:44:34.706Z,0.40
2023-05-11T11:47:20.513Z,0.75
2023-05-11T11:49:49.945Z,0.52
2023-05-11T11:52:28.947Z,0.50
2023-05-11T11:54:59.752Z,0.70
2023-05-11T11:57:35.307Z,0.43
2023-05-11T12:00:12.024Z,0.57
2023-05-11T12:02:43.566Z,0.70
2023-05-11T12:05:19.844Z,0.50
2023-05-11T12:07:51.579Z,0.70
2023-05-11T12:10:20.375Z,0.70
2023-05-11T12:12:55.015Z,0.73
2023-05-11T12:15:26.819Z,0.98
2023-05-11T12:17:54.709Z,0.90
2023-05-11T12:20:22.454Z,0.80
2023-05-11T12:22:50.288Z,0.80
2023-05-11T12:25:18.641Z,0.80
2023-05-11T12:27:55.511Z,0.90
2023-05-11T12:30:27.302Z,0.70
2023-05-11T12:32:57.691Z,0.90
2023-05-11T12:35:30.371Z,1.10
2023-05-11T12:38:00.161Z,1.27
2023-05-11T12:40:27.409Z,1.90
2023-05-11T12:42:55.887Z,1.98
2023-05-11T12:45:24.816Z,2.30
2023-05-11T12:47:54.160Z,2.17
2023-05-11T12:50:22.064Z,2.08
2023-05-11T12:52:50.339Z,1.42
2023-05-11T12:55:30.782Z,1.83
2023-05-11T12:58:15.754Z,1.63
2023-05-11T13:00:56.843Z,1.15
2023-05-11T13:03:30.756Z,1.42
2023-05-11T13:06:10.706Z,1.30
2023-05-11T13:08:39.076Z,1.17
2023-05-11T13:11:25.803Z,1.20
2023-05-11T13:13:57.263Z,1.10
2023-05-11T13:16:29.614Z,1.20
2023-05-11T13:19:10.374Z,1.30
2023-05-11T13:21:37.398Z,1.10
2023-05-11T13:24:04.767Z,0.75
2023-05-11T13:26:32.692Z,0.82
2023-05-11T13:29:10.246Z,0.70
2023-05-11T13:31:48.811Z,0.65
2023-05-11T13:34:16.386Z,0.70
2023-05-11T13:36:43.580Z,0.90
2023-05-11T13:39:10.806Z,0.70
2023-05-11T13:41:37.686Z,0.70
2023-05-11T13:44:04.956Z,0.50
2023-05-11T13:46:31.986Z,0.80
2023-05-11T13:49:00.484Z,0.80
2023-05-11T13:51:27.747Z,0.85
2023-05-11T13:53:54.886Z,0.70
2023-05-11T13:56:22.280Z,1.00
2023-05-11T13:58:49.265Z,1.00
2023-05-11T14:01:16.449Z,0.82
2023-05-11T14:03:43.546Z,0.80
2023-05-11T14:06:10.552Z,1.00
2023-05-11T14:08:37.445Z,1.20
2023-05-11T14:11:04.445Z,1.20
2023-05-11T14:13:31.312Z,1.50
2023-05-11T14:15:58.273Z,1.58
2023-05-11T14:18:26.223Z,1.40
2023-05-11T14:20:54.286Z,1.20
2023-05-11T14:23:21.672Z,1.40
2023-05-11T14:25:48.622Z,1.48
2023-05-11T14:28:15.544Z,1.45
2023-05-11T14:30:42.531Z,1.60
2023-05-11T14:33:09.528Z,1.70
2023-05-11T14:35:39.077Z,1.80
2023-05-11T14:38:06.926Z,1.70
2023-05-11T14:40:33.877Z,1.38
2023-05-11T14:43:01.497Z,1.27
2023-05-11T14:45:28.983Z,1.15
2023-05-11T14:47:56.193Z,1.00
2023-05-11T14:50:23.039Z,1.10
2023-05-11T14:52:50.019Z,1.27
2023-05-11T14:55:17.143Z,1.30
2023-05-11T14:57:44.173Z,1.33
2023-05-11T15:00:12.912Z,1.40
2023-05-11T15:02:40.179Z,1.30
2023-05-11T15:05:07.827Z,1.52
2023-05-11T15:07:35.040Z,1.60
2023-05-11T15:10:02.336Z,1.38
2023-05-11T15:12:29.955Z,1.35
2023-05-11T15:14:56.898Z,1.63
2023-05-11T15:17:23.814Z,1.60
2023-05-11T15:19:50.724Z,1.70
2023-05-11T15:22:17.746Z,1.50
2023-05-11T15:24:44.728Z,1.30
2023-05-11T15:27:11.833Z,1.20
2023-05-11T15:29:39.055Z,1.50
2023-05-11T15:32:06.528Z,1.40
2023-05-11T15:34:33.967Z,1.23
2023-05-11T15:37:00.880Z,1.17
2023-05-11T15:39:27.933Z,1.17
2023-05-11T15:41:54.882Z,1.15
2023-05-11T15:44:21.758Z,1.30
2023-05-11T15:46:48.888Z,1.17
2023-05-11T15:49:16.922Z,1.35
2023-05-11T15:51:43.807Z,1.15
2023-05-11T15:54:10.711Z,1.40
2023-05-11T15:56:37.597Z,1.20
2023-05-11T15:59:04.477Z,1.33
2023-05-11T16:01:31.456Z,1.33
2023-05-11T16:03:58.547Z,1.20
2023-05-11T16:06:29.222Z,2.20
2023-05-11T16:08:56.263Z,1.30
2023-05-11T16:11:23.129Z,1.10
2023-05-11T16:13:49.999Z,1.00
2023-05-11T16:16:16.945Z,1.25
2023-05-11T16:18:46.476Z,1.33
2023-05-11T16:21:14.470Z,1.15
2023-05-11T16:23:41.753Z,1.45
2023-05-11T16:26:08.646Z,1.20
2023-05-11T16:28:35.505Z,1.30
2023-05-11T16:31:02.503Z,1.20
2023-05-11T16:33:29.453Z,1.20
2023-05-11T16:35:56.326Z,1.33
2023-05-11T16:38:23.232Z,1.17
2023-05-11T16:40:50.254Z,1.50
2023-05-11T16:43:17.432Z,1.75
2023-05-11T16:45:44.823Z,2.75
2023-05-11T16:48:11.715Z,2.03
2023-05-11T16:50:38.657Z,1.58
2023-05-11T16:53:05.697Z,1.30
2023-05-11T16:55:32.541Z,1.10
2023-05-11T16:57:59.369Z,1.10
2023-05-11T17:00:26.694Z,1.00
2023-05-11T17:02:53.666Z,1.10
2023-05-11T17:05:23.187Z,1.00
2023-05-11T17:07:50.156Z,1.30
2023-05-11T17:10:17.537Z,1.42
2023-05-11T17:12:44.680Z,1.27
2023-05-11T17:15:12.055Z,1.60
2023-05-11T17:17:39.202Z,1.30
2023-05-11T17:20:07.970Z,1.10
2023-05-11T17:22:35.258Z,1.02
2023-05-11T17:25:05.568Z,1.20
2023-05-11T17:27:32.567Z,1.35
2023-05-11T17:29:59.487Z,1.40
2023-05-11T17:32:26.681Z,1.45
2023-05-11T17:34:53.938Z,2.00
2023-05-11T17:37:31.370Z,1.60
2023-05-11T17:40:01.127Z,2.03
2023-05-11T17:42:28.627Z,1.55
2023-05-11T17:44:56.043Z,1.40
2023-05-11T17:47:22.990Z,1.30
2023-05-11T17:49:50.599Z,1.80
2023-05-11T17:52:17.533Z,1.30
2023-05-11T17:54:44.482Z,1.30
2023-05-11T17:57:11.408Z,1.50
2023-05-11T17:59:38.271Z,1.55
2023-05-11T18:02:05.280Z,1.20
2023-05-11T18:04:32.167Z,1.63
2023-05-11T18:07:00.336Z,1.40
2023-05-11T18:09:27.198Z,1.52
2023-05-11T18:11:54.147Z,1.70
2023-05-11T18:14:21.087Z,1.63
2023-05-11T18:16:49.594Z,1.75
2023-05-11T18:19:18.602Z,1.50
2023-05-11T18:21:45.697Z,1.30
2023-05-11T18:24:15.203Z,1.60
2023-05-11T18:26:42.221Z,1.50
2023-05-11T18:29:09.167Z,1.40
2023-05-11T18:31:36.362Z,1.73
2023-05-11T18:34:04.573Z,1.33
2023-05-11T18:36:31.463Z,1.30
2023-05-11T18:38:58.366Z,1.40
2023-05-11T18:41:25.360Z,1.15
2023-05-11T18:43:53.066Z,1.30
2023-05-11T18:46:20.561Z,1.35
2023-05-11T18:48:50.551Z,1.10
2023-05-11T18:51:22.523Z,1.48
2023-05-11T18:53:50.391Z,1.27
2023-05-11T18:56:17.446Z,1.35
2023-05-11T18:58:45.147Z,1.40
2023-05-11T19:01:12.110Z,1.50
2023-05-11T19:03:39.191Z,1.20
2023-05-11T19:06:07.611Z,1.38
2023-05-11T19:08:35.058Z,1.40
2023-05-11T19:11:09.536Z,1.42
2023-05-11T19:13:37.212Z,1.35
2023-05-11T19:16:04.802Z,1.38
2023-05-11T19:18:35.372Z,1.38
2023-05-11T19:21:06.678Z,1.20
2023-05-11T19:23:34.041Z,1.20
2023-05-11T19:26:00.988Z,1.38
2023-05-11T19:28:27.951Z,1.33
2023-05-11T19:31:05.709Z,1.67
2023-05-11T19:33:33.271Z,1.60
2023-05-11T19:36:00.239Z,1.50
2023-05-11T19:38:27.510Z,1.70
2023-05-11T19:40:54.488Z,1.23
2023-05-11T19:43:22.910Z,1.40
2023-05-11T19:45:49.812Z,1.60
2023-05-11T19:48:17.090Z,1.50
2023-05-11T19:50:44.320Z,1.50
2023-05-11T19:53:11.279Z,1.40
2023-05-11T19:55:40.050Z,1.45
2023-05-11T19:58:07.346Z,1.50
2023-05-11T20:00:34.328Z,1.58
2023-05-11T20:03:01.757Z,1.58
2023-05-11T20:05:28.676Z,1.48
2023-05-11T20:07:55.793Z,1.80
2023-05-11T20:10:22.795Z,1.95
2023-05-11T20:12:49.632Z,1.65
2023-05-11T20:15:16.560Z,1.45
2023-05-11T20:17:43.914Z,1.60
2023-05-11T20:20:11.444Z,1.80
2023-05-11T20:22:38.615Z,1.80
2023-05-11T20:25:17.064Z,2.05
2023-05-11T20:27:45.448Z,1.88
2023-05-11T20:30:12.822Z,1.70
2023-05-11T20:32:39.770Z,1.67
2023-05-11T20:35:07.224Z,2.30
2023-05-11T20:37:34.485Z,1.50
2023-05-11T20:40:01.570Z,1.50
2023-05-11T20:42:28.474Z,1.70
2023-05-11T20:44:55.470Z,2.00
2023-05-11T20:47:22.324Z,1.80
2023-05-11T20:49:50.129Z,1.83
2023-05-11T20:52:17.891Z,1.67
2023-05-11T20:54:44.812Z,1.33
2023-05-11T20:57:11.795Z,1.40
2023-05-11T21:02:08.550Z,1.60
2023-05-11T21:04:36.195Z,1.70
2023-05-11T21:07:03.089Z,1.67
2023-05-11T21:09:30.085Z,1.50
2023-05-11T21:11:56.940Z,1.52
2023-05-11T21:14:23.842Z,1.48
2023-05-11T21:16:50.753Z,1.60
2023-05-11T21:19:18.528Z,1.55
2023-05-11T21:21:47.144Z,1.80
2023-05-11T21:24:14.178Z,1.70
2023-05-11T21:26:41.263Z,1.60
2023-05-11T21:29:08.362Z,1.90
2023-05-11T21:31:35.247Z,1.67
2023-05-11T21:34:02.360Z,1.55
2023-05-11T21:36:29.309Z,1.60
2023-05-11T21:38:56.133Z,1.77
2023-05-11T21:41:23.175Z,1.63
2023-05-11T21:43:50.676Z,1.35
2023-05-11T21:46:17.553Z,1.30
2023-05-11T21:48:44.435Z,1.63
2023-05-11T21:51:11.481Z,1.65
2023-05-11T21:53:38.550Z,1.45
2023-05-11T21:56:05.664Z,1.48
2023-05-11T21:58:32.745Z,1.42
2023-05-11T22:00:59.666Z,1.42
2023-05-11T22:03:30.166Z,2.00
2023-05-11T22:05:57.656Z,1.83
2023-05-11T22:08:25.626Z,1.67
2023-05-11T22:10:52.600Z,2.00
2023-05-11T22:13:19.886Z,1.55
2023-05-11T22:15:47.185Z,2.15
2023-05-11T22:18:14.049Z,1.98
2023-05-11T22:20:41.020Z,1.70
2023-05-11T22:23:08.059Z,1.77
2023-05-11T22:25:35.059Z,1.42
2023-05-11T22:28:01.976Z,1.75
2023-05-11T22:30:28.875Z,1.70
2023-05-11T22:32:55.876Z,1.60
2023-05-11T22:35:23.030Z,1.80
2023-05-11T22:37:49.935Z,1.63
2023-05-11T22:40:17.215Z,1.80
2023-05-11T22:42:44.176Z,1.55
2023-05-11T22:45:11.334Z,1.58
2023-05-11T22:47:38.235Z,1.80
2023-05-11T22:50:08.509Z,1.58
2023-05-11T22:52:36.422Z,1.70
2023-05-11T22:55:04.089Z,1.90
2023-05-11T22:57:32.170Z,1.52
2023-05-11T22:59:59.240Z,1.50
2023-05-11T23:02:26.223Z,1.55
2023-05-11T23:04:53.526Z,1.40
2023-05-11T23:07:20.374Z,1.50
2023-05-11T23:09:47.737Z,1.70
2023-05-11T23:12:14.605Z,1.60
2023-05-11T23:14:42.121Z,1.55
2023-05-11T23:17:09.188Z,1.48
2023-05-11T23:19:36.344Z,1.63
2023-05-11T23:22:03.424Z,1.80
2023-05-11T23:24:30.645Z,2.15
2023-05-11T23:26:57.631Z,1.50
2023-05-11T23:29:24.706Z,1.77
2023-05-11T23:31:51.735Z,1.90
2023-05-11T23:34:19.006Z,1.80
2023-05-11T23:36:46.710Z,1.38
2023-05-11T23:39:13.892Z,1.73
2023-05-11T23:41:40.887Z,1.92
2023-05-11T23:44:07.729Z,1.90
2023-05-11T23:46:34.805Z,1.90
2023-05-11T23:49:02.039Z,2.15
2023-05-11T23:51:28.975Z,1.95
2023-05-11T23:53:55.894Z,1.80
2023-05-11T23:56:22.856Z,1.80
2023-05-11T23:58:50.529Z,1.83
